Time;durP1;ratioP1;P1;durP2;ratioP2;P2;SDS_P1;SDS_P2;PMS_P1;PMS_P2;Temp;Humidity;BMP_temperature;BMP_pressure;BME280_temperature;BME280_humidity;BME280_pressure;Samples;Min_cycle;Max_cycle;Signal;HPM_P1;HPM_P2
2021/12/23 00:00:02;;;;;;;67.33;31.23;;;-0.80;99.90;;;;;;5084303;27;20237;-70
2021/12/23 00:02:56;;;;;;;75.73;31.73;;;-0.90;99.90;;;;;;5098805;27;20219;-69
2021/12/23 00:05:45;;;;;;;71.27;32.20;;;-0.80;99.90;;;;;;5099305;27;20215;-69
2021/12/23 00:08:34;;;;;;;74.23;32.00;;;-0.90;99.90;;;;;;5098719;27;20699;-70
2021/12/23 00:11:24;;;;;;;71.90;32.30;;;-0.90;99.90;;;;;;5097264;28;20405;-68
2021/12/23 00:14:14;;;;;;;73.83;33.20;;;-0.90;99.90;;;;;;5094632;27;20316;-70
2021/12/23 00:17:19;;;;;;;78.63;33.83;;;-0.90;99.90;;;;;;5081133;28;21651;-71
2021/12/23 00:26:25;;;;;;;71.23;32.83;;;-0.90;99.90;;;;;;5077780;28;20220;-70
2021/12/23 00:29:14;;;;;;;67.50;32.03;;;-0.80;99.90;;;;;;5080479;27;20303;-71
2021/12/23 00:32:05;;;;;;;74.43;32.37;;;-0.90;99.90;;;;;;5080497;28;20237;-71
2021/12/23 00:34:54;;;;;;;69.27;31.73;;;-0.90;99.90;;;;;;5076232;28;20216;-70
2021/12/23 00:37:45;;;;;;;74.03;33.07;;;-0.90;99.90;;;;;;5102389;27;20222;-70
2021/12/23 00:40:34;;;;;;;74.23;31.97;;;-0.80;99.90;;;;;;5096330;27;20702;-70
2021/12/23 00:43:28;;;;;;;70.20;33.00;;;-0.90;99.90;;;;;;5082209;28;20763;-70
2021/12/23 00:46:17;;;;;;;71.00;32.67;;;-0.90;99.90;;;;;;5096399;28;20219;-70
2021/12/23 00:49:06;;;;;;;74.73;32.97;;;-0.90;99.90;;;;;;5077687;27;20219;-71
2021/12/23 00:51:57;;;;;;;69.50;33.30;;;-0.80;99.90;;;;;;5081820;28;20207;-69
2021/12/23 00:54:46;;;;;;;69.67;32.53;;;-0.80;99.90;;;;;;5096664;27;20222;-69
2021/12/23 00:57:38;;;;;;;76.13;32.77;;;-0.80;99.90;;;;;;5084452;27;20246;-70
2021/12/23 01:00:29;;;;;;;69.63;32.67;;;-0.80;99.90;;;;;;5083828;27;20224;-71
2021/12/23 01:03:18;;;;;;;72.50;30.37;;;-0.80;99.90;;;;;;5095113;27;20249;-70
2021/12/23 01:06:07;;;;;;;68.70;30.87;;;-0.80;99.90;;;;;;5079308;28;20227;-70
2021/12/23 01:08:56;;;;;;;65.73;30.10;;;-0.80;99.90;;;;;;5083302;28;20749;-69
2021/12/23 01:11:44;;;;;;;62.17;29.70;;;-0.80;99.90;;;;;;5097800;27;20738;-70
2021/12/23 01:14:42;;;;;;;71.53;29.50;;;-0.80;99.90;;;;;;5082298;28;20223;-69
2021/12/23 01:17:52;;;;;;;66.07;29.67;;;-0.80;99.90;;;;;;5083981;28;20231;-70
2021/12/23 01:20:51;;;;;;;62.23;28.80;;;-0.80;99.90;;;;;;5095686;27;20269;-70
2021/12/23 01:23:42;;;;;;;57.07;27.27;;;-0.80;99.90;;;;;;5097739;27;20226;-68
2021/12/23 01:26:30;;;;;;;64.83;29.00;;;-0.80;99.90;;;;;;5065382;27;20227;-71
2021/12/23 01:29:20;;;;;;;62.67;29.13;;;-0.80;99.90;;;;;;5102115;27;20247;-68
2021/12/23 01:32:13;;;;;;;66.93;29.97;;;-0.80;99.90;;;;;;5099470;28;20219;-70
2021/12/23 01:35:04;;;;;;;62.50;28.03;;;-0.80;99.90;;;;;;5098556;27;20666;-71
2021/12/23 01:37:56;;;;;;;62.93;29.07;;;-0.80;99.90;;;;;;5081882;28;20283;-72
2021/12/23 01:40:46;;;;;;;63.90;28.93;;;-0.80;99.90;;;;;;5098106;28;20322;-70
2021/12/23 01:43:39;;;;;;;63.93;29.83;;;-0.80;99.90;;;;;;5082744;27;20242;-70
2021/12/23 01:46:28;;;;;;;62.23;29.10;;;-0.90;99.90;;;;;;5080513;28;20952;-70
2021/12/23 01:49:17;;;;;;;69.60;30.20;;;-0.90;99.90;;;;;;5096949;28;20893;-71
2021/12/23 01:52:08;;;;;;;70.33;30.97;;;-0.90;99.90;;;;;;5080102;27;20238;-70
2021/12/23 01:54:57;;;;;;;65.27;30.83;;;-1.00;99.90;;;;;;5095483;27;20218;-70
2021/12/23 01:57:46;;;;;;;67.00;30.53;;;-1.00;99.90;;;;;;5080372;28;20229;-69
2021/12/23 02:00:37;;;;;;;69.47;30.27;;;-1.00;99.90;;;;;;5080549;27;20302;-69
2021/12/23 02:03:26;;;;;;;70.17;30.37;;;-1.00;99.90;;;;;;5095241;27;20231;-69
2021/12/23 02:06:15;;;;;;;71.00;29.67;;;-1.00;99.90;;;;;;5098402;27;20234;-71
2021/12/23 02:09:05;;;;;;;65.13;30.07;;;-1.00;99.90;;;;;;5092872;27;20226;-69
2021/12/23 02:11:58;;;;;;;70.10;30.93;;;-1.00;99.90;;;;;;5094574;28;20284;-68
2021/12/23 02:14:47;;;;;;;71.73;31.57;;;-1.00;99.90;;;;;;5079581;28;20238;-69
2021/12/23 02:17:36;;;;;;;69.77;30.83;;;-1.00;99.90;;;;;;5097694;27;20210;-69
2021/12/23 02:20:30;;;;;;;74.33;32.10;;;-1.00;99.90;;;;;;5095733;27;20737;-70
2021/12/23 02:23:19;;;;;;;69.43;30.23;;;-1.00;99.90;;;;;;5080277;27;20225;-71
2021/12/23 02:26:08;;;;;;;68.27;32.23;;;-1.00;99.90;;;;;;5094244;28;20241;-71
2021/12/23 02:28:56;;;;;;;74.00;30.90;;;-1.10;99.90;;;;;;5077534;27;20309;-69
2021/12/23 02:31:49;;;;;;;71.53;29.67;;;-1.00;99.90;;;;;;5096086;27;20248;-72
2021/12/23 02:34:38;;;;;;;61.57;28.83;;;-1.10;99.90;;;;;;5092754;27;20221;-70
2021/12/23 02:37:30;;;;;;;61.97;28.90;;;-1.10;99.90;;;;;;5080821;28;20229;-71
2021/12/23 02:40:30;;;;;;;62.20;28.90;;;-1.10;99.90;;;;;;5092910;27;20215;-72
2021/12/23 02:43:22;;;;;;;58.70;27.83;;;-1.10;99.90;;;;;;5100031;28;20223;-70
2021/12/23 02:46:11;;;;;;;68.13;29.43;;;-1.10;99.90;;;;;;5084118;28;20759;-69
2021/12/23 02:48:59;;;;;;;65.47;29.47;;;-1.20;99.90;;;;;;5081437;28;20225;-70
2021/12/23 02:51:48;;;;;;;64.90;28.10;;;-1.20;99.90;;;;;;5095788;27;20295;-71
2021/12/23 02:54:42;;;;;;;63.97;28.30;;;-1.20;99.90;;;;;;5080353;28;20231;-70
2021/12/23 02:57:32;;;;;;;63.43;29.53;;;-1.30;99.90;;;;;;5081146;28;21469;-69
2021/12/23 03:00:21;;;;;;;64.40;28.23;;;-1.30;99.90;;;;;;5096256;28;20711;-69
2021/12/23 03:03:09;;;;;;;63.67;28.47;;;-1.30;99.90;;;;;;5076187;28;20248;-69
2021/12/23 03:05:59;;;;;;;57.40;27.97;;;-1.30;99.90;;;;;;5080573;28;20227;-69
2021/12/23 03:08:50;;;;;;;63.63;25.63;;;-1.30;99.90;;;;;;5071988;28;20215;-67
2021/12/23 03:11:40;;;;;;;59.97;26.47;;;-1.40;99.90;;;;;;5082111;28;20225;-69
2021/12/23 03:14:29;;;;;;;59.37;26.33;;;-1.40;99.90;;;;;;5095846;28;20265;-71
2021/12/23 03:17:18;;;;;;;58.93;24.57;;;-1.40;99.90;;;;;;5080895;28;20218;-71
2021/12/23 03:20:07;;;;;;;56.53;25.00;;;-1.40;99.90;;;;;;5084766;28;20309;-70
2021/12/23 03:22:56;;;;;;;52.40;25.27;;;-1.40;99.90;;;;;;5098730;28;20222;-69
2021/12/23 03:25:45;;;;;;;58.03;25.07;;;-1.40;99.90;;;;;;5079527;28;20279;-69
2021/12/23 03:28:35;;;;;;;51.27;24.23;;;-1.40;99.90;;;;;;5088048;27;20210;-69
2021/12/23 03:31:24;;;;;;;54.53;25.53;;;-1.40;99.90;;;;;;5102032;27;20305;-69
2021/12/23 03:34:13;;;;;;;54.27;24.80;;;-1.50;99.90;;;;;;5088241;27;20529;-69
2021/12/23 03:37:01;;;;;;;55.20;25.70;;;-1.40;99.90;;;;;;5072295;28;20320;-70
2021/12/23 03:39:53;;;;;;;56.33;25.83;;;-1.50;99.90;;;;;;5092793;27;20267;-69
2021/12/23 03:42:41;;;;;;;55.37;24.23;;;-1.50;99.90;;;;;;5093881;27;20237;-70
2021/12/23 03:45:32;;;;;;;52.73;25.17;;;-1.50;99.90;;;;;;5081227;27;20223;-70
2021/12/23 03:48:21;;;;;;;55.60;24.70;;;-1.50;99.90;;;;;;5098860;27;20226;-69
2021/12/23 03:51:10;;;;;;;57.93;25.30;;;-1.50;99.90;;;;;;5099681;27;20227;-68
2021/12/23 03:54:00;;;;;;;54.23;25.57;;;-1.50;99.90;;;;;;5087946;28;21176;-69
2021/12/23 03:56:48;;;;;;;54.80;24.33;;;-1.50;99.90;;;;;;5098389;27;20207;-69
2021/12/23 03:59:37;;;;;;;61.83;26.63;;;-1.50;99.90;;;;;;5102498;27;20248;-70
2021/12/23 04:02:27;;;;;;;58.20;24.63;;;-1.60;99.90;;;;;;5081555;28;20228;-70
2021/12/23 04:05:16;;;;;;;52.90;24.43;;;-1.50;99.90;;;;;;5097926;27;20229;-69
2021/12/23 04:08:06;;;;;;;56.47;24.07;;;-1.40;99.90;;;;;;5082510;28;20219;-70
2021/12/23 04:10:58;;;;;;;56.77;24.03;;;-1.50;99.90;;;;;;5100365;27;20761;-71
2021/12/23 04:13:47;;;;;;;53.13;24.10;;;-1.50;99.90;;;;;;5099055;28;21078;-70
2021/12/23 04:16:39;;;;;;;52.60;24.07;;;-1.50;99.90;;;;;;5088724;27;20210;-72
2021/12/23 04:19:31;;;;;;;57.30;24.87;;;-1.50;99.90;;;;;;5101642;27;20227;-70
2021/12/23 04:22:20;;;;;;;54.27;23.70;;;-1.40;99.90;;;;;;5077887;28;20226;-69
2021/12/23 04:25:10;;;;;;;48.07;24.40;;;-1.40;99.90;;;;;;5097493;27;20222;-69
2021/12/23 04:28:03;;;;;;;54.57;24.37;;;-1.40;99.90;;;;;;5094725;27;20215;-65
2021/12/23 04:30:52;;;;;;;52.37;23.90;;;-1.40;99.90;;;;;;5097941;27;20215;-70
2021/12/23 04:33:40;;;;;;;52.57;24.47;;;-1.30;99.90;;;;;;5089207;28;20207;-68
2021/12/23 04:36:31;;;;;;;55.37;25.20;;;-1.30;99.90;;;;;;5085156;27;20536;-68
2021/12/23 04:39:20;;;;;;;60.27;25.90;;;-1.40;99.90;;;;;;5100742;27;20222;-67
2021/12/23 04:42:09;;;;;;;54.80;24.20;;;-1.40;99.90;;;;;;5097931;27;20234;-70
2021/12/23 04:44:57;;;;;;;52.67;25.30;;;-1.40;99.90;;;;;;5098086;27;20211;-70
2021/12/23 04:47:46;;;;;;;51.93;24.33;;;-1.40;99.90;;;;;;5083549;28;20230;-70
2021/12/23 04:50:35;;;;;;;55.40;24.47;;;-1.40;99.90;;;;;;5084893;27;20229;-69
2021/12/23 04:53:29;;;;;;;57.90;25.53;;;-1.40;99.90;;;;;;5093557;28;20241;-70
2021/12/23 04:56:18;;;;;;;54.10;24.90;;;-1.40;99.90;;;;;;5095412;27;20211;-70
2021/12/23 04:59:07;;;;;;;53.30;24.77;;;-1.50;99.90;;;;;;5084227;28;20230;-69
2021/12/23 05:01:56;;;;;;;52.10;25.03;;;-1.50;99.90;;;;;;5093897;28;20245;-70
2021/12/23 05:04:50;;;;;;;54.53;25.07;;;-1.50;99.90;;;;;;5081338;27;20219;-70
2021/12/23 05:07:43;;;;;;;50.43;23.97;;;-1.50;99.90;;;;;;5081855;28;20211;-69
2021/12/23 05:10:37;;;;;;;55.67;24.57;;;-1.50;99.90;;;;;;5088974;27;20706;-69
2021/12/23 05:13:25;;;;;;;56.53;24.90;;;-1.50;99.90;;;;;;5094489;28;20231;-71
2021/12/23 05:16:14;;;;;;;58.20;24.10;;;-1.60;99.90;;;;;;5096306;28;20341;-69
2021/12/23 05:19:02;;;;;;;53.00;25.50;;;-1.60;99.90;;;;;;5095287;27;20322;-69
2021/12/23 05:21:52;;;;;;;51.87;24.57;;;-1.60;99.90;;;;;;5082327;28;20227;-70
2021/12/23 05:24:41;;;;;;;56.33;24.47;;;-1.60;99.90;;;;;;5099513;27;20229;-70
2021/12/23 05:27:31;;;;;;;59.30;25.73;;;-1.50;99.90;;;;;;5099399;28;20671;-70
2021/12/23 05:30:21;;;;;;;52.47;24.57;;;-1.50;99.90;;;;;;5081600;27;20214;-71
2021/12/23 05:33:09;;;;;;;59.03;25.90;;;-1.50;99.90;;;;;;5085585;28;20218;-69
2021/12/23 05:35:58;;;;;;;56.53;24.57;;;-1.50;99.90;;;;;;5095222;27;20226;-69
2021/12/23 05:38:47;;;;;;;49.70;24.43;;;-1.50;99.90;;;;;;5097069;28;20238;-70
2021/12/23 05:41:36;;;;;;;52.23;25.37;;;-1.40;99.90;;;;;;5062639;28;20226;-70
2021/12/23 05:44:30;;;;;;;54.70;25.30;;;-1.50;99.90;;;;;;5075174;27;20258;-73
2021/12/23 05:47:18;;;;;;;60.43;26.20;;;-1.50;99.90;;;;;;5088477;28;20221;-68
2021/12/23 05:50:08;;;;;;;55.93;25.70;;;-1.50;99.90;;;;;;5095442;28;20219;-70
2021/12/23 05:52:57;;;;;;;52.67;25.27;;;-1.40;99.90;;;;;;5082312;28;20218;-68
2021/12/23 05:55:45;;;;;;;55.37;26.20;;;-1.50;99.90;;;;;;5081135;28;20215;-69
2021/12/23 05:58:37;;;;;;;53.50;26.03;;;-1.50;99.90;;;;;;5097732;27;20214;-69
2021/12/23 06:01:27;;;;;;;54.80;25.03;;;-1.50;99.90;;;;;;5068288;28;20219;-70
2021/12/23 06:04:16;;;;;;;58.13;26.40;;;-1.50;99.90;;;;;;5097978;28;20298;-69
2021/12/23 06:07:05;;;;;;;53.40;25.03;;;-1.50;99.90;;;;;;5096994;27;20258;-69
2021/12/23 06:09:54;;;;;;;64.27;27.07;;;-1.50;99.90;;;;;;5100152;27;20222;-70
2021/12/23 06:12:43;;;;;;;53.90;25.53;;;-1.50;99.90;;;;;;5097257;28;20214;-68
2021/12/23 06:15:32;;;;;;;56.50;25.03;;;-1.50;99.90;;;;;;5100455;27;20250;-68
2021/12/23 06:18:22;;;;;;;52.20;24.57;;;-1.50;99.90;;;;;;5097583;27;20619;-69
2021/12/23 06:21:10;;;;;;;55.80;25.77;;;-1.50;99.90;;;;;;5082891;28;20233;-70
2021/12/23 06:24:02;;;;;;;56.90;27.40;;;-1.50;99.90;;;;;;5081632;28;20276;-69
2021/12/23 06:26:51;;;;;;;54.60;25.13;;;-1.40;99.90;;;;;;5100675;27;20219;-69
2021/12/23 06:29:40;;;;;;;49.83;25.10;;;-1.50;99.90;;;;;;5084094;28;20809;-69
2021/12/23 06:32:29;;;;;;;52.50;24.63;;;-1.50;99.90;;;;;;5097988;27;20225;-70
2021/12/23 06:35:20;;;;;;;58.43;26.10;;;-1.50;99.90;;;;;;5082630;28;20222;-70
2021/12/23 06:38:11;;;;;;;61.83;26.70;;;-1.60;99.90;;;;;;5098896;27;20226;-69
2021/12/23 06:41:00;;;;;;;65.73;26.17;;;-1.50;99.90;;;;;;5099587;27;20229;-70
2021/12/23 06:43:49;;;;;;;60.27;26.77;;;-1.50;99.90;;;;;;5086984;28;20255;-69
2021/12/23 06:46:38;;;;;;;62.00;26.07;;;-1.50;99.90;;;;;;5101101;28;20245;-66
2021/12/23 06:49:36;;;;;;;54.90;26.03;;;-1.50;99.90;;;;;;5092409;28;20223;-69
2021/12/23 06:52:26;;;;;;;56.83;27.17;;;-1.50;99.90;;;;;;5086018;28;20226;-70
2021/12/23 06:55:16;;;;;;;60.03;27.07;;;-1.50;99.90;;;;;;5098730;28;20234;-72
2021/12/23 06:58:04;;;;;;;53.83;25.17;;;-1.60;99.90;;;;;;5098209;28;20242;-69
2021/12/23 07:00:55;;;;;;;52.80;24.73;;;-1.60;99.90;;;;;;5083684;27;20238;-70
2021/12/23 07:04:03;;;;;;;58.40;26.23;;;-1.60;99.90;;;;;;5100813;28;20241;-72
2021/12/23 07:06:59;;;;;;;59.80;25.93;;;-1.60;99.90;;;;;;5083504;28;20273;-69
2021/12/23 07:09:49;;;;;;;55.67;25.87;;;-1.50;99.90;;;;;;5088212;28;20275;-69
2021/12/23 07:12:39;;;;;;;52.40;24.37;;;-1.50;99.90;;;;;;5099919;28;20227;-69
2021/12/23 07:15:28;;;;;;;52.47;24.43;;;-1.60;99.90;;;;;;5082299;28;20726;-67
2021/12/23 07:18:17;;;;;;;52.83;25.10;;;-1.60;99.90;;;;;;5097314;28;20237;-70
2021/12/23 07:21:05;;;;;;;55.60;26.00;;;-1.60;99.90;;;;;;5097301;28;20271;-68
2021/12/23 07:23:54;;;;;;;54.60;25.73;;;-1.60;99.90;;;;;;5089811;28;20211;-69
2021/12/23 07:26:44;;;;;;;56.43;25.23;;;-1.60;99.90;;;;;;5095400;28;20744;-69
2021/12/23 07:29:33;;;;;;;53.23;24.93;;;-1.60;99.90;;;;;;5083844;28;20237;-68
2021/12/23 07:32:22;;;;;;;54.47;23.87;;;-1.50;99.90;;;;;;5080959;28;20603;-67
2021/12/23 07:35:11;;;;;;;54.77;25.37;;;-1.50;99.90;;;;;;5085119;28;20247;-68
2021/12/23 07:38:03;;;;;;;60.77;26.10;;;-1.50;99.90;;;;;;5085792;28;20234;-67
2021/12/23 07:40:51;;;;;;;53.20;25.53;;;-1.40;99.90;;;;;;5099094;28;20216;-68
2021/12/23 07:43:55;;;;;;;57.17;25.87;;;-1.50;99.90;;;;;;5088329;28;20222;-67
2021/12/23 07:46:44;;;;;;;51.93;25.57;;;-1.50;99.90;;;;;;5093171;28;20213;-69
2021/12/23 07:49:33;;;;;;;61.03;26.07;;;-1.40;99.90;;;;;;5097496;28;20246;-67
2021/12/23 07:52:22;;;;;;;56.23;24.77;;;-1.40;99.90;;;;;;5078769;28;20223;-68
2021/12/23 07:55:12;;;;;;;57.43;25.07;;;-1.30;99.90;;;;;;5088557;28;20219;-69
2021/12/23 07:58:01;;;;;;;55.10;24.97;;;-1.30;99.90;;;;;;5077361;28;20355;-68
2021/12/23 08:00:51;;;;;;;58.03;26.23;;;-1.40;99.90;;;;;;5092487;28;20632;-69
2021/12/23 08:03:40;;;;;;;56.33;25.33;;;-1.30;99.90;;;;;;5079057;28;20226;-68
2021/12/23 08:06:28;;;;;;;59.07;26.33;;;-1.30;99.90;;;;;;5065382;28;20268;-68
2021/12/23 08:09:17;;;;;;;53.13;24.40;;;-1.30;99.90;;;;;;5076081;28;20260;-67
2021/12/23 08:12:08;;;;;;;52.03;24.87;;;-1.20;99.90;;;;;;5078487;28;20233;-69
2021/12/23 08:14:56;;;;;;;49.40;24.57;;;-1.20;99.90;;;;;;5082753;27;20230;-68
2021/12/23 08:18:00;;;;;;;57.40;24.40;;;-1.10;99.90;;;;;;5096725;27;20223;-66
2021/12/23 08:20:49;;;;;;;51.97;25.80;;;-1.20;99.90;;;;;;5091746;27;20230;-67
2021/12/23 08:23:38;;;;;;;53.77;24.53;;;-1.10;99.90;;;;;;5092026;28;20214;-67
2021/12/23 08:26:28;;;;;;;54.77;24.90;;;-1.10;99.90;;;;;;5096557;27;20227;-68
2021/12/23 08:29:19;;;;;;;61.03;25.23;;;-1.10;99.90;;;;;;5096808;27;20230;-71
2021/12/23 08:32:08;;;;;;;55.97;24.80;;;-1.20;99.90;;;;;;5098303;27;20228;-69
2021/12/23 08:34:58;;;;;;;49.77;24.77;;;-1.10;99.90;;;;;;5096874;27;20244;-68
2021/12/23 08:37:49;;;;;;;48.00;23.50;;;-1.00;99.90;;;;;;5094253;27;20223;-68
2021/12/23 08:40:37;;;;;;;55.87;25.43;;;-1.00;99.90;;;;;;5094156;27;20226;-67
2021/12/23 08:43:26;;;;;;;54.33;26.07;;;-1.00;99.90;;;;;;5096671;27;21012;-69
2021/12/23 08:46:15;;;;;;;51.40;25.60;;;-0.90;99.90;;;;;;5082253;27;20219;-66
2021/12/23 08:49:05;;;;;;;56.53;25.93;;;-1.00;99.90;;;;;;5086978;28;20242;-68
2021/12/23 08:51:55;;;;;;;57.20;26.13;;;-0.90;99.90;;;;;;5081506;28;20241;-68
2021/12/23 08:54:44;;;;;;;58.67;26.53;;;-1.00;99.90;;;;;;5093670;27;20718;-68
2021/12/23 08:57:33;;;;;;;55.10;26.27;;;-0.90;99.90;;;;;;5097450;27;21368;-69
2021/12/23 09:00:22;;;;;;;53.53;25.33;;;-0.90;99.90;;;;;;5099485;28;20564;-69
2021/12/23 09:03:11;;;;;;;55.00;26.63;;;-0.80;99.90;;;;;;5081837;27;20360;-68
2021/12/23 09:06:04;;;;;;;58.77;26.70;;;-0.90;99.90;;;;;;5096640;27;20215;-68
2021/12/23 09:08:55;;;;;;;55.90;26.53;;;-0.80;99.90;;;;;;5096326;27;20336;-68
2021/12/23 09:11:43;;;;;;;58.90;26.27;;;-0.70;99.90;;;;;;5090879;27;20547;-67
2021/12/23 09:14:33;;;;;;;59.13;26.60;;;-0.80;99.90;;;;;;5081828;27;20364;-69
2021/12/23 09:17:21;;;;;;;52.33;26.23;;;-0.80;99.90;;;;;;5079559;27;20230;-68
2021/12/23 09:20:16;;;;;;;54.83;26.57;;;-0.80;99.90;;;;;;5098161;27;22262;-68
2021/12/23 09:23:10;;;;;;;54.13;25.77;;;-0.80;99.90;;;;;;5092465;28;20224;-70
2021/12/23 09:26:00;;;;;;;53.37;25.73;;;-0.70;99.90;;;;;;5087135;27;20256;-67
2021/12/23 09:28:58;;;;;;;54.97;26.03;;;-0.70;99.90;;;;;;5080820;27;20234;-68
2021/12/23 09:34:53;;;;;;;55.87;26.07;;;-0.60;99.90;;;;;;5067841;28;20260;-67
2021/12/23 09:37:42;;;;;;;56.33;26.27;;;-0.70;99.90;;;;;;5081060;27;20313;-67
2021/12/23 09:40:32;;;;;;;52.80;26.00;;;-0.70;99.90;;;;;;5078936;28;20789;-66
2021/12/23 09:43:25;;;;;;;57.70;26.70;;;-0.60;99.90;;;;;;5082351;27;20216;-67
2021/12/23 09:46:18;;;;;;;53.90;27.10;;;-0.60;99.90;;;;;;5097865;27;20241;-67
2021/12/23 09:49:07;;;;;;;53.30;26.73;;;-0.50;99.90;;;;;;5097886;27;20231;-67
2021/12/23 09:51:58;;;;;;;53.67;26.23;;;-0.40;99.90;;;;;;5086932;27;20231;-67
2021/12/23 09:54:47;;;;;;;54.33;26.33;;;-0.40;99.90;;;;;;5092455;27;20211;-68
2021/12/23 09:57:36;;;;;;;59.43;26.63;;;-0.40;99.90;;;;;;5094775;27;20235;-66
2021/12/23 10:00:30;;;;;;;64.90;27.93;;;-0.40;99.90;;;;;;5079721;28;20227;-69
2021/12/23 10:03:21;;;;;;;60.17;28.13;;;-0.50;99.90;;;;;;5098150;27;20222;-63
2021/12/23 10:06:10;;;;;;;54.17;26.80;;;-0.40;99.90;;;;;;5089154;27;20337;-69
2021/12/23 10:08:59;;;;;;;57.83;26.07;;;-0.30;99.90;;;;;;5091870;27;20800;-66
2021/12/23 10:12:20;;;;;;;54.20;27.00;;;-0.20;99.90;;;;;;5099673;28;20692;-69
2021/12/23 10:30:55;;;;;;;50.67;25.63;;;-0.10;99.90;;;;;;5097440;28;20729;-69
2021/12/23 10:33:50;;;;;;;56.83;26.67;;;-0.10;99.90;;;;;;5097078;28;20714;-68
2021/12/23 10:39:48;;;;;;;58.07;26.57;;;-0.20;99.90;;;;;;5099615;28;20237;-68
2021/12/23 10:42:36;;;;;;;56.03;27.90;;;0.00;99.90;;;;;;5094278;28;20245;-69
2021/12/23 10:45:33;;;;;;;60.80;29.30;;;0.00;99.90;;;;;;5063706;28;20223;-69
2021/12/23 10:48:24;;;;;;;55.63;28.03;;;0.10;99.90;;;;;;5078941;28;20542;-68
2021/12/23 10:51:17;;;;;;;52.57;26.47;;;0.10;99.90;;;;;;5081121;28;20220;-68
2021/12/23 10:54:22;;;;;;;61.60;28.00;;;0.10;99.90;;;;;;5077858;28;20349;-68
2021/12/23 11:00:36;;;;;;;52.57;26.57;;;0.10;99.90;;;;;;5087071;28;21225;-66
2021/12/23 11:03:30;;;;;;;54.00;26.37;;;0.20;99.90;;;;;;5072308;28;20575;-67
2021/12/23 11:06:30;;;;;;;57.20;26.70;;;0.30;99.90;;;;;;5090932;28;20226;-66
2021/12/23 11:09:36;;;;;;;51.57;25.10;;;0.30;99.90;;;;;;5075807;28;20227;-67
2021/12/23 11:37:43;;;;;;;49.17;24.57;;;0.60;99.90;;;;;;5083096;28;20575;-65
2021/12/23 11:43:50;;;;;;;50.57;24.33;;;0.60;99.90;;;;;;5065834;28;20804;-73
2021/12/23 11:46:44;;;;;;;52.80;24.37;;;0.50;99.90;;;;;;5074365;28;20294;-74
2021/12/23 11:49:35;;;;;;;52.20;24.93;;;0.50;99.90;;;;;;5066960;28;20226;-72
2021/12/23 11:52:23;;;;;;;51.90;24.43;;;0.40;99.90;;;;;;5078368;28;20236;-72
2021/12/23 11:55:18;;;;;;;46.70;24.17;;;0.40;99.90;;;;;;5068258;28;20223;-73
2021/12/23 11:58:06;;;;;;;47.30;24.23;;;0.40;99.90;;;;;;5076893;28;20229;-72
2021/12/23 12:01:04;;;;;;;48.07;24.50;;;0.50;99.90;;;;;;5086759;28;20225;-73
2021/12/23 12:03:56;;;;;;;48.27;23.60;;;0.40;99.90;;;;;;5067876;28;20227;-77
2021/12/23 12:06:48;;;;;;;48.97;23.90;;;0.50;99.90;;;;;;5079212;28;20227;-74
2021/12/23 12:09:38;;;;;;;53.23;23.50;;;0.50;99.90;;;;;;5084669;28;20287;-75
2021/12/23 12:12:30;;;;;;;51.10;25.03;;;0.50;99.90;;;;;;5078248;28;20235;-75
2021/12/23 12:15:34;;;;;;;50.73;24.00;;;0.50;99.90;;;;;;5096139;28;20653;-75
2021/12/23 12:18:24;;;;;;;51.20;23.73;;;0.50;99.90;;;;;;5077641;28;20227;-76
2021/12/23 12:21:23;;;;;;;44.63;22.97;;;0.50;99.90;;;;;;5074666;28;20661;-76
2021/12/23 12:24:17;;;;;;;46.07;23.07;;;0.60;99.90;;;;;;5087671;28;20251;-75
2021/12/23 12:27:11;;;;;;;49.30;23.13;;;0.60;99.90;;;;;;5069290;28;20225;-75
2021/12/23 12:30:10;;;;;;;48.47;23.97;;;0.60;99.90;;;;;;5069447;28;20233;-76
2021/12/23 12:33:03;;;;;;;45.60;22.57;;;0.60;99.90;;;;;;5056189;28;20230;-77
2021/12/23 12:36:04;;;;;;;48.90;23.37;;;0.60;99.90;;;;;;5052430;28;20217;-77
2021/12/23 12:38:57;;;;;;;45.07;21.23;;;0.60;99.90;;;;;;5056463;28;20236;-76
2021/12/23 12:41:47;;;;;;;47.60;22.27;;;0.60;99.90;;;;;;5053040;28;20256;-74
2021/12/23 12:44:47;;;;;;;48.73;22.83;;;0.60;99.90;;;;;;5079489;28;20221;-75
2021/12/23 12:47:49;;;;;;;50.67;23.17;;;0.70;99.90;;;;;;5061662;28;20234;-74
2021/12/23 12:50:40;;;;;;;49.87;23.33;;;0.70;99.90;;;;;;5069162;28;20218;-75
2021/12/23 12:53:31;;;;;;;48.57;23.33;;;0.70;99.90;;;;;;5055565;28;20250;-74
2021/12/23 12:56:22;;;;;;;47.37;23.00;;;0.70;99.90;;;;;;5059386;28;20725;-72
2021/12/23 12:59:12;;;;;;;52.73;23.53;;;0.60;99.90;;;;;;5056483;28;20364;-70
2021/12/23 13:02:01;;;;;;;47.40;23.40;;;0.70;99.90;;;;;;5057961;28;20691;-71
2021/12/23 13:04:59;;;;;;;47.93;23.90;;;0.70;99.90;;;;;;5051879;28;20224;-73
2021/12/23 13:08:24;;;;;;;43.57;22.13;;;0.70;99.90;;;;;;5065744;28;20219;-73
2021/12/23 13:11:36;;;;;;;45.50;22.07;;;0.80;99.90;;;;;;5054741;28;20239;-73
2021/12/23 13:14:57;;;;;;;45.43;22.13;;;0.80;99.90;;;;;;5056499;28;20257;-72
2021/12/23 13:18:21;;;;;;;47.43;22.83;;;0.70;99.90;;;;;;5076678;28;20244;-75
2021/12/23 13:21:13;;;;;;;48.10;22.40;;;0.70;99.90;;;;;;5060307;28;20671;-73
2021/12/23 13:24:03;;;;;;;45.90;22.10;;;0.70;99.90;;;;;;5057712;28;20226;-74
2021/12/23 13:26:55;;;;;;;47.50;22.53;;;0.80;99.90;;;;;;5058365;28;20219;-74
2021/12/23 13:29:44;;;;;;;41.40;20.53;;;0.70;99.90;;;;;;5058975;28;20238;-73
2021/12/23 13:32:36;;;;;;;47.60;22.33;;;0.70;99.90;;;;;;5076079;28;20233;-74
2021/12/23 13:35:25;;;;;;;51.00;21.87;;;0.80;99.90;;;;;;5054240;28;20225;-75
2021/12/23 13:38:38;;;;;;;46.67;21.43;;;0.70;99.90;;;;;;5045739;28;20401;-72
2021/12/23 13:41:29;;;;;;;46.27;21.33;;;0.70;99.90;;;;;;5047437;28;25953;-73
2021/12/23 13:44:21;;;;;;;48.53;23.00;;;0.70;99.90;;;;;;5053746;28;20241;-71
2021/12/23 13:47:11;;;;;;;41.30;22.07;;;0.80;99.90;;;;;;5068941;28;20706;-71
2021/12/23 13:50:00;;;;;;;48.73;22.27;;;0.70;99.90;;;;;;5070074;28;20236;-73
2021/12/23 13:52:50;;;;;;;47.57;22.77;;;0.70;99.90;;;;;;5066497;28;20406;-71
2021/12/23 13:55:41;;;;;;;49.27;22.90;;;0.70;99.90;;;;;;5067140;28;20548;-68
2021/12/23 13:58:29;;;;;;;54.03;24.00;;;0.70;99.90;;;;;;5074546;28;20222;-71
2021/12/23 14:01:18;;;;;;;46.73;21.87;;;0.70;99.90;;;;;;5075198;28;20227;-70
2021/12/23 14:04:07;;;;;;;47.80;22.13;;;0.70;99.90;;;;;;5075290;28;20273;-71
2021/12/23 14:06:56;;;;;;;46.67;21.20;;;0.80;99.90;;;;;;5054381;28;20274;-71
2021/12/23 14:09:48;;;;;;;45.27;22.20;;;0.70;99.90;;;;;;5057319;28;20258;-71
2021/12/23 14:12:50;;;;;;;45.13;21.20;;;0.70;99.90;;;;;;5061634;28;20232;-71
2021/12/23 14:15:40;;;;;;;46.70;21.33;;;0.70;99.90;;;;;;5077568;28;20692;-72
2021/12/23 14:18:45;;;;;;;49.80;22.63;;;0.70;99.90;;;;;;5075101;28;20222;-71
2021/12/23 14:24:40;;;;;;;42.93;20.17;;;0.70;99.90;;;;;;5055107;28;20223;-69
2021/12/23 14:27:29;;;;;;;49.50;21.27;;;0.70;99.90;;;;;;5052056;28;20236;-72
2021/12/23 14:30:19;;;;;;;42.67;21.03;;;0.60;99.90;;;;;;5050605;28;20746;-71
2021/12/23 14:33:12;;;;;;;46.60;21.50;;;0.60;99.90;;;;;;5056224;28;20214;-70
2021/12/23 14:36:08;;;;;;;45.43;21.60;;;0.60;99.90;;;;;;5060035;28;20223;-71
2021/12/23 14:38:59;;;;;;;45.33;21.53;;;0.60;99.90;;;;;;5079078;28;20311;-72
2021/12/23 14:41:51;;;;;;;44.43;22.47;;;0.70;99.90;;;;;;5064998;28;20221;-72
2021/12/23 14:44:40;;;;;;;48.10;22.47;;;0.60;99.90;;;;;;5063012;28;20253;-74
2021/12/23 14:47:32;;;;;;;48.50;24.33;;;0.60;99.90;;;;;;5070736;28;21082;-74
2021/12/23 14:50:23;;;;;;;52.07;24.47;;;0.60;99.90;;;;;;5051243;28;20789;-73
2021/12/23 14:53:19;;;;;;;53.97;23.57;;;0.60;99.90;;;;;;5049097;28;20243;-74
2021/12/23 14:56:07;;;;;;;50.10;23.43;;;0.60;99.90;;;;;;5050844;28;20268;-73
2021/12/23 14:59:04;;;;;;;55.83;23.87;;;0.50;99.90;;;;;;5058292;28;20224;-73
2021/12/23 15:02:05;;;;;;;47.70;22.73;;;0.50;99.90;;;;;;5062900;28;20227;-73
2021/12/23 15:05:07;;;;;;;46.57;22.53;;;0.50;99.90;;;;;;5054898;28;20226;-73
2021/12/23 15:08:00;;;;;;;45.67;23.20;;;0.50;99.90;;;;;;5055702;28;20233;-71
2021/12/23 15:10:50;;;;;;;50.53;22.90;;;0.40;99.90;;;;;;5057674;28;20708;-71
2021/12/23 15:13:41;;;;;;;50.07;23.57;;;0.40;99.90;;;;;;5051661;28;20229;-69
2021/12/23 15:16:30;;;;;;;52.67;25.13;;;0.40;99.90;;;;;;5062966;28;20226;-74
2021/12/23 15:19:26;;;;;;;52.63;24.07;;;0.40;99.90;;;;;;5048790;28;20250;-75
2021/12/23 15:22:18;;;;;;;48.23;24.13;;;0.40;99.90;;;;;;5049732;28;20223;-73
2021/12/23 15:25:10;;;;;;;55.10;25.33;;;0.30;99.90;;;;;;5053798;28;20221;-72
2021/12/23 15:27:59;;;;;;;49.20;23.30;;;0.40;99.90;;;;;;5054661;28;20597;-72
2021/12/23 15:30:48;;;;;;;54.30;25.53;;;0.40;99.90;;;;;;5051499;28;20221;-71
2021/12/23 15:33:37;;;;;;;56.03;24.57;;;0.30;99.90;;;;;;5058956;28;20239;-75
2021/12/23 15:36:25;;;;;;;58.27;25.03;;;0.30;99.90;;;;;;5066080;28;20242;-74